Mount Uniacke, Canada
Current Conditions -  °F | °C
As of 11:00 AM on Wednesday 26 Nov 2014 (Local Time) from CYHZ Reporting Station
Overcast Overcast  
Wind Chill: 40°   Ceiling: 14000
Heat Index: 45°   Visibility: 15mi
Dew Point: 34°   Wind: 8mph
Humidity: 66%   Direction: 320°NW
Pressure: 30.19"   Gusts: NA
Location:  44.88°N, 63.83°W
Report Text: CYHZ 261500Z 32007KT 15SM OVC140 07/01 A3019 RMK AC8 SLP228
Loading
Personal Weather Stations






























Interactive Weather Map New forecast layout! Learn more

10-Day Weather Forecast

Advertisements
Track Severe Weather on mobile